ASN logo
ASN Wikibase Occurrence # 249047
Last updated: 27 November 2021
This information is added by users of ASN. Neither ASN nor the Flight Safety Foundation are responsible for the completeness or correctness of this information. If you feel this information is incomplete or incorrect, you can submit corrected information.

Date:18-MAR-2021
Time:18:10 UTC
Type:Silhouette image of generic CRJ9 model; specific model in this crash may look slightly different
Bombardier CRJ-900LR
Owner/operator:Delta Connection, opb Endeavor Air
Registration: N910XJ
MSN: 15143
Fatalities:Fatalities: 0 / Occupants:
Other fatalities:0
Aircraft damage: Minor
Location:Chattanooga Airport, TN (CHA/KCHA) -   United States of America
Phase: Landing
Nature:Passenger - Scheduled
Departure airport:Atlanta Hartsfield-Jackson International Airport, GA (ATL/KATL)
Destination airport:Chattanooga-Lovell Field, TN (CHA/KCHA)
Narrative:
Delta flight DL4757, a CRJ-900LR, suffered a wing-tip strike on landing at Chattanooga Airport, TN (CHA).
While landing on runway 20 the left-hand wing tip sustained damage after hitting the runway.

Weather reported about the time of the incident:
KCHA 181753Z 21018G29KT 10SM SCT033 BKN055 21/08 A2967 RMK AO2 PK WND 21029/1746 SLP041 T02060083 10211 20167 50000
KCHA 181853Z 24015G27KT 10SM BKN050 BKN065 18/07 A2967 RMK AO2 PK WND 24030/1758 SLP043 T01830067

The incident aircraft was ferried to Cincinnati, KY (CVG) on March 21.

Sources:

https://www.flightradar24.com/data/aircraft/n910xj#271ebae2

Media:


Revision history:

Date/timeContributorUpdates
23-Mar-2021 17:54 harro Added
23-Mar-2021 17:58 harro Updated [Time, Location, Embed code, Narrative]

Corrections or additions? ... Edit this accident description